Time;durP1;ratioP1;P1;durP2;ratioP2;P2;SDS_P1;SDS_P2;PMS_P1;PMS_P2;Temp;Humidity;BMP_temperature;BMP_pressure;BME280_temperature;BME280_humidity;BME280_pressure;Samples;Min_cycle;Max_cycle;Signal;HPM_P1;HPM_P2
2022/07/27 00:00:42;;;;;;;3.70;2.10;;;;;;;;;;5115856;28;20456;-93
2022/07/27 00:03:10;;;;;;;1.80;1.70;;;;;;;;;;5112697;28;20911;-93
2022/07/27 00:05:38;;;;;;;2.07;1.60;;;;;;;;;;5112363;28;20448;-94
2022/07/27 00:08:07;;;;;;;2.83;1.73;;;;;;;;;;5115690;28;20456;-93
2022/07/27 00:10:34;;;;;;;2.53;1.90;;;;;;;;;;5115763;28;20481;-92
2022/07/27 00:13:01;;;;;;;2.93;1.80;;;;;;;;;;5115431;28;20494;-94
2022/07/27 00:15:29;;;;;;;6.17;2.80;;;;;;;;;;5116553;28;20440;-93
2022/07/27 00:17:59;;;;;;;2.60;2.10;;;;;;;;;;5115940;28;20986;-92
2022/07/27 00:20:26;;;;;;;3.33;2.30;;;;;;;;;;5116500;28;20472;-92
2022/07/27 00:22:54;;;;;;;3.17;2.30;;;;;;;;;;5111939;28;20775;-94
2022/07/27 00:25:23;;;;;;;3.63;2.20;;;;;;;;;;5111146;28;20513;-92
2022/07/27 00:27:50;;;;;;;3.17;2.20;;;;;;;;;;5115439;28;20523;-94
2022/07/27 00:30:17;;;;;;;3.30;2.37;;;;;;;;;;5116738;28;20440;-94
2022/07/27 00:32:44;;;;;;;3.57;2.40;;;;;;;;;;5115553;28;20454;-94
2022/07/27 00:35:13;;;;;;;2.33;2.13;;;;;;;;;;5119589;28;20455;-92
2022/07/27 00:37:40;;;;;;;4.13;2.10;;;;;;;;;;5124812;28;20974;-92
2022/07/27 00:40:08;;;;;;;2.90;2.13;;;;;;;;;;5122457;28;20452;-94
2022/07/27 00:42:37;;;;;;;4.00;2.50;;;;;;;;;;5120749;28;20472;-94
2022/07/27 00:45:05;;;;;;;4.97;2.60;;;;;;;;;;5119314;28;20456;-92
2022/07/27 00:47:32;;;;;;;2.97;2.27;;;;;;;;;;5119456;28;20462;-93
2022/07/27 00:50:00;;;;;;;3.73;2.23;;;;;;;;;;5119380;28;20448;-94
2022/07/27 00:52:31;;;;;;;3.80;2.33;;;;;;;;;;5131383;28;20443;-94
2022/07/27 00:54:59;;;;;;;2.40;2.03;;;18.20;99.90;;;;;;5142093;28;20479;-94
2022/07/27 00:57:26;;;;;;;3.67;2.53;;;;;;;;;;5119645;28;20440;-91
2022/07/27 00:59:55;;;;;;;7.90;2.97;;;;;;;;;;5118775;28;20444;-94
2022/07/27 01:02:23;;;;;;;2.40;2.20;;;;;;;;;;5118700;28;20452;-94
2022/07/27 01:04:51;;;;;;;4.00;2.47;;;;;;;;;;5118840;28;20462;-95
2022/07/27 01:07:18;;;;;;;2.33;2.13;;;;;;;;;;5117893;28;20470;-94
2022/07/27 01:09:57;;;;;;;2.80;2.60;;;;;;;;;;5117533;28;20483;-94
2022/07/27 01:12:26;;;;;;;4.43;2.60;;;;;;;;;;5116597;28;20444;-94
2022/07/27 01:14:54;;;;;;;2.47;2.23;;;;;;;;;;5117254;28;21040;-92
2022/07/27 01:17:23;;;;;;;2.43;2.23;;;;;;;;;;5118297;28;20472;-96
2022/07/27 01:19:50;;;;;;;3.57;2.47;;;;;;;;;;5118281;28;20458;-93
2022/07/27 01:22:19;;;;;;;2.40;2.20;;;;;;;;;;5117494;28;20427;-93
2022/07/27 01:24:46;;;;;;;2.60;2.40;;;;;;;;;;5118929;28;20805;-93
2022/07/27 01:27:13;;;;;;;4.93;2.77;;;;;;;;;;5114584;28;20475;-93
2022/07/27 01:29:41;;;;;;;3.53;2.50;;;;;;;;;;5117594;28;20804;-93
2022/07/27 01:32:08;;;;;;;3.40;2.57;;;;;;;;;;5118384;28;20444;-94
2022/07/27 01:34:35;;;;;;;2.40;2.20;;;;;;;;;;5118086;28;20484;-94
2022/07/27 01:37:03;;;;;;;2.60;2.20;;;;;;;;;;5118083;28;20455;-93
2022/07/27 01:39:33;;;;;;;4.50;2.73;;;;;;;;;;5118754;28;20452;-93
2022/07/27 01:42:00;;;;;;;6.00;2.87;;;;;;;;;;5118280;28;20963;-92
2022/07/27 01:44:28;;;;;;;5.87;2.30;;;;;;;;;;5118121;28;20445;-95
2022/07/27 01:46:55;;;;;;;4.07;2.80;;;;;;;;;;5118379;28;20791;-95
2022/07/27 01:49:22;;;;;;;4.43;3.20;;;;;;;;;;5118842;28;20948;-94
2022/07/27 01:51:49;;;;;;;2.30;2.10;;;;;;;;;;5118116;28;20790;-94
2022/07/27 01:54:16;;;;;;;3.07;2.83;;;;;;;;;;5116409;28;21021;-94
2022/07/27 01:56:45;;;;;;;2.67;2.47;;;;;;;;;;5118235;28;20811;-93
2022/07/27 01:59:12;;;;;;;3.13;2.43;;;;;;;;;;5113658;28;20458;-95
2022/07/27 02:01:39;;;;;;;10.63;3.00;;;;;;;;;;5117922;28;20458;-93
2022/07/27 02:04:07;;;;;;;11.70;3.30;;;;;;;;;;5114182;28;20451;-93
2022/07/27 02:06:34;;;;;;;4.23;2.97;;;;;;;;;;5118039;28;20454;-94
2022/07/27 02:09:01;;;;;;;2.87;2.57;;;;;;;;;;5117900;28;20945;-93
2022/07/27 02:14:15;;;;;;;4.93;2.57;;;;;;;;;;5118423;28;20462;-93
2022/07/27 02:16:42;;;;;;;5.27;2.70;;;;;;;;;;5118325;28;20479;-93
2022/07/27 02:19:09;;;;;;;4.43;2.70;;;;;;;;;;5117281;28;20832;-92
2022/07/27 02:21:36;;;;;;;3.87;2.53;;;;;;;;;;5117161;28;20448;-93
2022/07/27 02:24:04;;;;;;;3.43;3.13;;;;;;;;;;5113064;28;20458;-94
2022/07/27 02:26:31;;;;;;;6.80;2.93;;;;;;;;;;5117880;28;20456;-93
2022/07/27 02:28:58;;;;;;;4.87;2.90;;;;;;;;;;5113952;28;21113;-93
2022/07/27 02:31:27;;;;;;;6.77;2.77;;;;;;;;;;5117715;28;20815;-93
2022/07/27 02:33:54;;;;;;;3.20;2.50;;;;;;;;;;5116880;28;20480;-92
2022/07/27 02:36:22;;;;;;;3.07;2.77;;;;;;;;;;5117191;28;20436;-94
2022/07/27 02:38:49;;;;;;;3.60;2.83;;;;;;;;;;5115570;28;20448;-94
2022/07/27 02:41:16;;;;;;;3.33;2.70;;;;;;;;;;5113469;28;20436;-93
2022/07/27 02:43:43;;;;;;;3.97;2.53;;;;;;;;;;5116594;28;20424;-93
2022/07/27 02:46:10;;;;;;;5.20;3.40;;;;;;;;;;5116803;28;20930;-94
2022/07/27 02:48:39;;;;;;;3.30;3.00;;;;;;;;;;5116761;28;20449;-94
2022/07/27 02:51:06;;;;;;;2.90;2.70;;;;;;;;;;5116837;28;20451;-93
2022/07/27 02:53:33;;;;;;;3.93;3.23;;;;;;;;;;5116175;28;20471;-94
2022/07/27 02:56:00;;;;;;;7.93;2.83;;;;;;;;;;5115705;28;20448;-94
2022/07/27 02:58:28;;;;;;;2.90;2.70;;;;;;;;;;5116636;28;20444;-93
2022/07/27 03:00:55;;;;;;;4.00;2.80;;;;;;;;;;5116779;28;20482;-91
2022/07/27 03:03:22;;;;;;;3.67;3.37;;;;;;;;;;5116874;28;20456;-92
2022/07/27 03:05:51;;;;;;;5.03;3.17;;;;;;;;;;5116172;28;20448;-93
2022/07/27 03:08:18;;;;;;;4.20;3.10;;;;;;;;;;5115417;28;20431;-93
2022/07/27 03:10:45;;;;;;;4.37;3.17;;;;;;;;;;5115971;28;20475;-92
2022/07/27 03:13:13;;;;;;;3.53;3.20;;;;;;;;;;5116074;28;20436;-94
2022/07/27 03:15:40;;;;;;;3.20;2.90;;;;;;;;;;5116337;28;20498;-92
2022/07/27 03:18:07;;;;;;;3.13;2.83;;;;;;;;;;5115396;28;20452;-94
2022/07/27 03:20:35;;;;;;;5.83;3.20;;;;;;;;;;5116103;28;20448;-92
2022/07/27 03:23:03;;;;;;;3.83;2.80;;;;;;;;;;5115606;28;20462;-92
2022/07/27 03:25:31;;;;;;;2.60;2.40;;;;;;;;;;5115971;28;20939;-93
2022/07/27 03:27:58;;;;;;;6.63;3.80;;;;;;;;;;5128044;28;20495;-95
2022/07/27 03:30:25;;;;;;;4.87;3.90;;;;;;;;;;5139204;28;20454;-94
2022/07/27 03:32:52;;;;;;;3.30;3.00;;;;;;;;;;5117562;28;20460;-93
2022/07/27 03:35:20;;;;;;;3.47;3.17;;;;;;;;;;5111335;28;20488;-94
2022/07/27 03:37:47;;;;;;;3.23;2.93;;;;;;;;;;5108563;28;20961;-92
2022/07/27 03:40:16;;;;;;;5.60;2.97;;;;;;;;;;5115909;28;20454;-93
2022/07/27 03:42:43;;;;;;;3.50;3.20;;;;;;;;;;5115982;28;20802;-94
2022/07/27 03:45:10;;;;;;;5.23;3.53;;;;;;;;;;5116031;28;20454;-93
2022/07/27 03:47:37;;;;;;;4.10;3.80;;;;;;;;;;5115968;28;20456;-94
2022/07/27 03:50:05;;;;;;;3.80;3.00;;;;;;;;;;5116187;28;20448;-93
2022/07/27 03:52:32;;;;;;;3.60;3.30;;;;;;;;;;5115163;28;20444;-93
2022/07/27 03:54:59;;;;;;;4.20;3.80;;;;;;;;;;5115727;28;20483;-93
2022/07/27 03:57:28;;;;;;;3.67;3.33;;;;;;;;;;5115006;28;20454;-92
2022/07/27 03:59:55;;;;;;;4.60;3.60;;;;;;;;;;5116039;28;20452;-93
2022/07/27 04:02:22;;;;;;;6.13;3.60;;;;;;;;;;5115811;28;20436;-91
2022/07/27 04:04:50;;;;;;;4.03;3.73;;;;;;;;;;5116251;28;20454;-93
2022/07/27 04:07:17;;;;;;;3.70;3.23;;;;;;;;;;5118688;28;20448;-93
2022/07/27 04:09:44;;;;;;;4.40;4.00;;;;;;;;;;5120175;28;20484;-93
2022/07/27 04:12:11;;;;;;;4.33;3.93;;;;;;;;;;5120115;28;20454;-93
2022/07/27 04:14:40;;;;;;;5.00;4.33;;;;;;;;;;5119111;28;20464;-92
2022/07/27 04:17:07;;;;;;;4.20;3.80;;;;;;;;;;5119714;28;20652;-93
2022/07/27 04:19:34;;;;;;;6.70;3.90;;;;;;;;;;5120232;28;20456;-93
2022/07/27 04:22:02;;;;;;;5.10;4.03;;;;;;;;;;5118936;28;20456;-93
2022/07/27 04:24:29;;;;;;;7.40;3.67;;;;;;;;;;5119641;28;20486;-93
2022/07/27 04:26:56;;;;;;;4.50;4.20;;;;;;;;;;5119911;28;20829;-92
2022/07/27 04:29:24;;;;;;;5.47;4.40;;;;;;;;;;5119489;28;20448;-93
2022/07/27 04:31:52;;;;;;;5.07;3.50;;;;;;;;;;5119473;28;20448;-94
2022/07/27 04:34:19;;;;;;;5.00;4.50;;;;;;;;;;5119348;28;20829;-93
2022/07/27 04:36:48;;;;;;;4.83;4.33;;;;;;;;;;5119399;28;20452;-93
2022/07/27 04:39:16;;;;;;;4.53;4.17;;;;;;;;;;5115532;28;20494;-93
2022/07/27 04:41:43;;;;;;;5.90;4.10;;;;;;;;;;5120513;28;20459;-93
2022/07/27 04:44:10;;;;;;;5.60;4.17;;;;;;;;;;5114991;28;20536;-93
2022/07/27 04:46:37;;;;;;;4.87;3.70;;;;;;;;;;5118995;28;20450;-94
2022/07/27 04:49:06;;;;;;;4.57;4.13;;;;;;;;;;5115689;28;20451;-93
2022/07/27 04:51:34;;;;;;;5.40;4.10;;;;;;;;;;5119626;28;20454;-93
2022/07/27 04:54:01;;;;;;;4.37;3.97;;;;;;;;;;5114747;28;20540;-93
2022/07/27 04:56:28;;;;;;;7.53;4.50;;;;;;;;;;5119735;28;20447;-94
2022/07/27 04:58:55;;;;;;;4.43;3.80;;;;;;;;;;5118772;28;20872;-93
2022/07/27 05:01:24;;;;;;;5.00;4.50;;;;;;;;;;5118557;28;20450;-93
2022/07/27 05:03:51;;;;;;;4.90;4.50;;;;;;;;;;5119343;28;20447;-93
2022/07/27 05:06:20;;;;;;;4.40;4.00;;;;;;;;;;5116900;28;20943;-93
2022/07/27 05:08:47;;;;;;;4.80;4.40;;;;;;;;;;5119778;28;20443;-93
2022/07/27 05:11:15;;;;;;;7.93;4.40;;;;;;;;;;5118345;28;20479;-93
2022/07/27 05:13:42;;;;;;;4.87;3.90;;;;;;;;;;5114803;28;20923;-92
2022/07/27 05:16:10;;;;;;;6.07;3.87;;;16.90;99.90;;;;;;5114003;28;20496;-92
2022/07/27 05:18:37;;;;;;;5.50;4.60;;;;;;;;;;5117883;28;20462;-92
2022/07/27 05:21:05;;;;;;;7.20;4.83;;;;;;;;;;5119161;28;20452;-94
2022/07/27 05:23:33;;;;;;;5.00;4.67;;;;;;;;;;5120908;28;20444;-92
2022/07/27 05:26:00;;;;;;;6.17;4.10;;;;;;;;;;5117830;28;20428;-91
2022/07/27 05:28:27;;;;;;;4.70;4.30;;;;;;;;;;5117549;28;20432;-90
2022/07/27 05:30:55;;;;;;;9.77;4.20;;;;;;;;;;5120655;28;20757;-92
2022/07/27 05:33:22;;;;;;;5.00;4.50;;;;;;;;;;5117821;28;20458;-91
2022/07/27 05:35:49;;;;;;;5.20;4.73;;;;;;;;;;5116826;28;20488;-91
2022/07/27 05:38:16;;;;;;;6.83;4.67;;;;;;;;;;5117005;28;20916;-92
2022/07/27 05:40:45;;;;;;;4.90;4.40;;;17.30;99.90;;;;;;5117970;28;20451;-89
2022/07/27 05:43:12;;;;;;;6.13;4.53;;;;;;;;;;5121652;22;20872;-90
2022/07/27 05:45:39;;;;;;;7.87;4.50;;;;;;;;;;5098669;28;20437;-93
2022/07/27 05:48:06;;;;;;;4.27;3.70;;;;;;;;;;5100516;28;20448;-92
2022/07/27 05:50:33;;;;;;;5.20;4.60;;;;;;;;;;5096711;28;20441;-89
2022/07/27 05:53:01;;;;;;;7.60;4.13;;;;;;;;;;5098317;28;20460;-88
2022/07/27 05:55:28;;;;;;;4.97;4.50;;;;;;;;;;5093636;28;20512;-89
2022/07/27 05:57:56;;;;;;;4.90;4.37;;;17.70;99.90;;;;;;5096935;28;20448;-93
2022/07/27 06:00:23;;;;;;;7.73;4.40;;;;;;;;;;5098868;28;20471;-90
2022/07/27 06:02:51;;;;;;;4.90;4.40;;;;;;;;;;5105017;28;20452;-91
2022/07/27 06:05:18;;;;;;;5.30;4.63;;;;;;;;;;5103884;28;20459;-90
2022/07/27 06:08:00;;;;;;;6.73;4.20;;;;;;;;;;5099174;28;20456;-94
2022/07/27 06:10:29;;;;;;;4.00;3.70;;;18.50;99.90;;;;;;5099370;28;20795;-92
2022/07/27 06:12:58;;;;;;;4.80;4.30;;;18.50;99.90;;;;;;5093706;28;20536;-89
2022/07/27 06:15:25;;;;;;;6.97;3.47;;;;;;;;;;5096701;28;20488;-91
2022/07/27 06:17:52;;;;;;;4.60;4.20;;;;;;;;;;5094891;28;20448;-87
2022/07/27 06:20:21;;;;;;;4.17;3.87;;;19.00;99.90;;;;;;5094764;28;20472;-89
2022/07/27 06:22:49;;;;;;;4.23;3.67;;;19.00;99.90;;;;;;5094312;28;20448;-89
2022/07/27 06:25:18;;;;;;;6.80;4.33;;;19.10;99.90;;;;;;5092145;28;20492;-89
2022/07/27 06:27:45;;;;;;;5.27;3.80;;;;;;;;;;5094738;28;20939;-90
2022/07/27 06:30:18;;;;;;;7.90;4.70;;;19.50;99.90;;;;;;5094967;28;20465;-91
2022/07/27 06:32:46;;;;;;;4.47;4.07;;;;;;;;;;5094624;28;20453;-90
2022/07/27 06:35:13;;;;;;;4.60;4.20;;;19.90;99.90;;;;;;5092922;28;20471;-92
2022/07/27 06:37:42;;;;;;;4.07;3.60;;;;;;;;;;5093314;28;20449;-89
2022/07/27 06:40:11;;;;;;;4.77;4.33;;;20.20;99.90;;;;;;5092483;28;20460;-89
2022/07/27 06:42:39;;;;;;;6.63;4.27;;;;;;;;;;5094382;28;21013;-91
2022/07/27 06:45:07;;;;;;;4.70;4.00;;;20.20;99.90;;;;;;5091465;28;20485;-91
2022/07/27 06:47:35;;;;;;;4.17;3.83;;;20.20;99.90;;;;;;5094273;28;20440;-90
2022/07/27 06:50:02;;;;;;;4.77;4.47;;;;;;;;;;5091046;28;20963;-92
2022/07/27 06:52:29;;;;;;;4.30;3.90;;;;;;;;;;5089567;28;20460;-91
2022/07/27 06:54:56;;;;;;;4.70;4.17;;;;;;;;;;5091302;28;20437;-92
2022/07/27 06:57:24;;;;;;;6.13;4.03;;;;;;;;;;5095288;28;20432;-94
2022/07/27 06:59:51;;;;;;;7.00;4.50;;;;;;;;;;5092493;28;20441;-91
2022/07/27 07:02:18;;;;;;;10.60;4.53;;;;;;;;;;5091129;28;20444;-90
2022/07/27 07:04:46;;;;;;;6.17;4.20;;;21.60;95.70;;;;;;5094319;28;20456;-89
2022/07/27 07:07:13;;;;;;;3.93;3.63;;;;;;;;;;5089235;28;20803;-88
2022/07/27 07:09:41;;;;;;;4.73;4.20;;;;;;;;;;5093974;28;20475;-91
2022/07/27 07:12:08;;;;;;;5.10;3.93;;;;;;;;;;5093987;28;20762;-88
2022/07/27 07:14:35;;;;;;;5.03;3.40;;;;;;;;;;5094088;28;20465;-92
2022/07/27 07:17:02;;;;;;;4.40;4.10;;;;;;;;;;5093976;28;20850;-91
2022/07/27 07:19:29;;;;;;;4.57;4.17;;;;;;;;;;5094011;28;20441;-93
2022/07/27 07:21:58;;;;;;;5.30;4.83;;;20.90;97.30;;;;;;5094464;28;20451;-90
2022/07/27 07:24:25;;;;;;;6.20;4.20;;;;;;;;;;5093815;28;20445;-91
2022/07/27 07:26:52;;;;;;;4.20;3.80;;;;;;;;;;5093761;28;20491;-91
2022/07/27 07:29:19;;;;;;;3.97;3.67;;;;;;;;;;5094144;28;20795;-91
2022/07/27 07:31:46;;;;;;;4.83;4.27;;;;;;;;;;5094424;28;20440;-93
2022/07/27 07:34:13;;;;;;;5.20;4.67;;;;;;;;;;5094604;28;20806;-90
2022/07/27 07:36:40;;;;;;;4.63;4.23;;;;;;;;;;5093611;28;20453;-90
2022/07/27 07:39:09;;;;;;;3.97;3.67;;;21.00;97.20;;;;;;5092272;28;20441;-91
2022/07/27 07:41:36;;;;;;;4.37;3.97;;;;;;;;;;5088984;28;20482;-90
2022/07/27 07:44:05;;;;;;;5.97;4.40;;;;;;;;;;5095015;28;20506;-90
2022/07/27 07:46:33;;;;;;;4.50;4.10;;;;;;;;;;5093662;28;20846;-92
2022/07/27 07:49:00;;;;;;;5.83;4.27;;;;;;;;;;5093958;28;20468;-91
2022/07/27 07:51:27;;;;;;;6.20;3.50;;;;;;;;;;5093640;28;20448;-92
2022/07/27 07:53:54;;;;;;;3.80;3.40;;;;;;;;;;5092674;28;20448;-90
2022/07/27 07:56:22;;;;;;;3.90;3.50;;;21.70;94.70;;;;;;5093445;28;20441;-89
2022/07/27 07:58:50;;;;;;;4.10;3.80;;;;;;;;;;5090291;28;20441;-90
2022/07/27 08:01:17;;;;;;;4.50;3.40;;;;;;;;;;5091624;28;20448;-89
2022/07/27 08:03:44;;;;;;;4.73;4.13;;;;;;;;;;5093648;28;20444;-90
2022/07/27 08:06:11;;;;;;;4.30;3.90;;;;;;;;;;5095516;28;20518;-91
2022/07/27 08:08:39;;;;;;;4.07;3.67;;;;;;;;;;5091661;28;20913;-91
2022/07/27 08:11:06;;;;;;;7.13;3.73;;;;;;;;;;5093996;28;20437;-92
2022/07/27 08:13:34;;;;;;;4.10;3.80;;;21.40;95.00;;;;;;5093561;28;20505;-90
2022/07/27 08:16:01;;;;;;;8.67;4.27;;;;;;;;;;5093543;28;20817;-92
2022/07/27 08:18:28;;;;;;;4.40;4.00;;;;;;;;;;5093469;28;20468;-90
2022/07/27 08:20:55;;;;;;;4.93;4.53;;;;;;;;;;5094120;28;20450;-93
2022/07/27 08:23:22;;;;;;;5.03;4.53;;;;;;;;;;5093066;28;20456;-90
2022/07/27 08:25:50;;;;;;;6.67;4.73;;;;;;;;;;5094977;28;20555;-92
2022/07/27 08:28:17;;;;;;;4.30;3.90;;;;;;;;;;5091273;28;20853;-91
2022/07/27 08:30:48;;;;;;;4.60;4.10;;;22.00;95.10;;;;;;5092023;28;20799;-93
2022/07/27 08:33:15;;;;;;;6.70;4.17;;;;;;;;;;5094008;28;20453;-90
2022/07/27 08:35:42;;;;;;;11.20;4.00;;;;;;;;;;5093937;28;20463;-91
2022/07/27 08:38:09;;;;;;;4.10;3.83;;;;;;;;;;5093627;28;20456;-91
2022/07/27 08:40:37;;;;;;;4.60;4.20;;;;;;;;;;5092547;28;20453;-93
2022/07/27 08:43:05;;;;;;;4.67;4.23;;;23.10;91.50;;;;;;5096054;28;20432;-93
2022/07/27 08:45:32;;;;;;;4.40;4.00;;;;;;;;;;5091714;28;20441;-90
2022/07/27 08:48:01;;;;;;;6.00;4.80;;;22.80;91.70;;;;;;5091357;28;20486;-93
2022/07/27 08:50:29;;;;;;;3.93;3.47;;;;;;;;;;5097037;28;20449;-94
2022/07/27 08:53:03;;;;;;;4.50;4.10;;;23.50;89.70;;;;;;5099268;28;20514;-94
2022/07/27 08:55:31;;;;;;;4.40;4.00;;;23.90;89.30;;;;;;5095111;28;20464;-96
2022/07/27 08:57:58;;;;;;;4.83;4.33;;;;;;;;;;5102563;28;20433;-90
2022/07/27 09:00:26;;;;;;;5.30;4.40;;;;;;;;;;5094618;28;20457;-88
2022/07/27 09:02:53;;;;;;;5.17;4.00;;;;;;;;;;5096178;28;20448;-90
2022/07/27 09:05:22;;;;;;;4.83;4.00;;;25.10;83.80;;;;;;5096084;28;20449;-91
2022/07/27 09:07:49;;;;;;;4.10;3.80;;;;;;;;;;5095161;28;20460;-92
2022/07/27 09:10:29;;;;;;;4.00;3.70;;;24.30;81.20;;;;;;5094001;28;20462;-90
2022/07/27 09:12:57;;;;;;;5.30;4.37;;;;;;;;;;5095851;28;20445;-91
2022/07/27 09:15:24;;;;;;;4.50;3.70;;;;;;;;;;5095818;28;20456;-90
2022/07/27 09:17:51;;;;;;;4.30;3.90;;;;;;;;;;5096448;28;20451;-91
2022/07/27 09:20:20;;;;;;;4.63;4.30;;;24.60;86.40;;;;;;5093401;28;20444;-90
2022/07/27 09:22:51;;;;;;;5.37;4.10;;;24.50;88.10;;;;;;5094764;28;20802;-93
2022/07/27 09:25:20;;;;;;;4.50;3.97;;;24.90;87.00;;;;;;5092920;28;20457;-90
2022/07/27 09:27:48;;;;;;;3.97;3.67;;;;;;;;;;5095627;28;21061;-88
2022/07/27 09:30:18;;;;;;;4.73;3.93;;;25.20;86.30;;;;;;5095805;28;20836;-90
2022/07/27 09:32:57;;;;;;;4.70;4.23;;;25.10;78.70;;;;;;5093839;28;20475;-89
2022/07/27 09:35:26;;;;;;;4.20;3.43;;;25.70;82.90;;;;;;5095817;28;20949;-91
2022/07/27 09:37:54;;;;;;;5.60;4.10;;;25.50;81.20;;;;;;5094373;28;20460;-88
2022/07/27 09:40:24;;;;;;;4.10;3.80;;;25.80;76.80;;;;;;5091941;28;20452;-88
2022/07/27 09:43:11;;;;;;;4.70;4.30;;;24.90;80.20;;;;;;5095377;28;20468;-89
2022/07/27 09:45:42;;;;;;;3.97;3.67;;;;;;;;;;5095458;28;20457;-93
2022/07/27 09:48:17;;;;;;;6.00;3.83;;;24.80;79.30;;;;;;5096989;28;20506;-95
2022/07/27 09:50:46;;;;;;;3.93;3.63;;;24.40;82.20;;;;;;5098002;28;20535;-94
2022/07/27 09:53:19;;;;;;;5.97;4.37;;;24.30;81.50;;;;;;5087996;28;20441;-93
2022/07/27 09:55:56;;;;;;;4.70;4.30;;;25.10;81.60;;;;;;5094848;28;20457;-94
2022/07/27 09:58:42;;;;;;;4.80;3.90;;;24.70;83.60;;;;;;5096864;28;20437;-93
2022/07/27 10:01:09;;;;;;;3.93;3.63;;;;;;;;;;5096373;28;20456;-92
2022/07/27 10:03:36;;;;;;;4.43;3.90;;;;;;;;;;5093917;28;20452;-93
2022/07/27 10:06:03;;;;;;;4.87;4.47;;;;;;;;;;5096724;28;20512;-94
2022/07/27 10:08:33;;;;;;;4.50;3.93;;;;;;;;;;5093436;28;20464;-93
2022/07/27 10:11:00;;;;;;;4.10;3.80;;;;;;;;;;5097651;28;20950;-92
2022/07/27 10:13:27;;;;;;;4.43;3.50;;;;;;;;;;5092481;28;20476;-92
2022/07/27 10:15:54;;;;;;;3.90;3.60;;;;;;;;;;5093753;28;20452;-92
2022/07/27 10:18:32;;;;;;;4.20;3.90;;;25.80;83.10;;;;;;5091325;28;20468;-92
2022/07/27 10:21:05;;;;;;;3.90;3.03;;;25.50;82.20;;;;;;5091496;28;20459;-94
2022/07/27 10:23:36;;;;;;;3.80;3.50;;;;;;;;;;5094939;28;20445;-93
2022/07/27 10:26:21;;;;;;;4.33;4.03;;;26.70;82.10;;;;;;5095465;28;20494;-92
2022/07/27 10:28:53;;;;;;;3.60;3.30;;;27.00;73.20;;;;;;5095611;28;20458;-93
2022/07/27 10:31:22;;;;;;;5.50;3.50;;;;;;;;;;5094768;28;20456;-92
2022/07/27 10:33:51;;;;;;;5.13;4.60;;;26.70;91.90;;;;;;5095191;28;20433;-94
2022/07/27 10:36:45;;;;;;;52.13;46.80;;;26.10;92.00;;;;;;5095696;28;20452;-91
2022/07/27 10:39:25;;;;;;;146.07;97.53;;;;;;;;;;5094593;28;20474;-93
2022/07/27 10:41:54;;;;;;;94.53;85.57;;;;;;;;;;5095044;28;20441;-90
2022/07/27 10:44:29;;;;;;;3.30;3.00;;;27.20;62.50;;;;;;5094929;28;20815;-92
2022/07/27 10:46:58;;;;;;;3.90;3.30;;;27.20;64.70;;;;;;5095084;28;20476;-92
2022/07/27 10:49:28;;;;;;;3.23;3.00;;;27.60;67.30;;;;;;5083785;28;20458;-93
2022/07/27 10:51:56;;;;;;;3.47;3.13;;;27.40;63.00;;;;;;5074691;28;20489;-93
2022/07/27 10:54:26;;;;;;;3.33;3.13;;;26.40;63.30;;;;;;5088933;28;20453;-92
2022/07/27 10:56:55;;;;;;;4.23;3.33;;;25.50;65.20;;;;;;5094998;28;20448;-93
2022/07/27 10:59:51;;;;;;;4.27;3.93;;;26.30;64.90;;;;;;5092675;28;20542;-92
2022/07/27 11:02:18;;;;;;;4.40;3.23;;;;;;;;;;5088933;28;20476;-92
2022/07/27 11:04:48;;;;;;;3.90;3.60;;;26.30;66.40;;;;;;5094934;28;20437;-91
2022/07/27 11:07:18;;;;;;;5.17;4.70;;;25.60;67.20;;;;;;5092108;28;20975;-95
2022/07/27 11:09:47;;;;;;;5.03;4.53;;;25.70;67.00;;;;;;5091857;28;20444;-91
2022/07/27 11:12:15;;;;;;;7.87;3.70;;;;;;;;;;5094692;28;20448;-92
2022/07/27 11:14:47;;;;;;;3.57;3.37;;;24.70;65.20;;;;;;5090776;28;20459;-94
2022/07/27 11:17:14;;;;;;;3.10;2.80;;;;;;;;;;5097914;28;20460;-89
2022/07/27 11:19:41;;;;;;;4.70;3.10;;;;;;;;;;5101344;28;20436;-91
2022/07/27 11:22:09;;;;;;;5.53;3.83;;;;;;;;;;5104628;28;20468;-91
2022/07/27 11:27:47;;;;;;;4.13;3.80;;;;;;;;;;5087182;28;20465;-95
2022/07/27 11:30:36;;;;;;;6.07;3.73;;;;;;;;;;5104299;28;20452;-93
2022/07/27 11:33:04;;;;;;;3.90;3.50;;;;;;;;;;5101036;28;20440;-91
2022/07/27 11:35:31;;;;;;;3.67;3.37;;;;;;;;;;5095481;28;20927;-89
2022/07/27 11:38:00;;;;;;;4.90;3.60;;;24.50;66.60;;;;;;5093525;28;20436;-86
2022/07/27 11:40:27;;;;;;;3.20;3.00;;;;;;;;;;5093683;28;20437;-93
2022/07/27 11:42:55;;;;;;;3.60;2.67;;;24.50;68.70;;;;;;5095670;28;20429;-93
2022/07/27 11:45:28;;;;;;;3.50;2.80;;;24.50;67.90;;;;;;5094493;28;20476;-90
2022/07/27 11:47:57;;;;;;;3.40;3.10;;;25.70;66.80;;;;;;5091988;28;20483;-93
2022/07/27 11:50:24;;;;;;;3.20;2.90;;;;;;;;;;5092014;28;20448;-91
2022/07/27 11:52:56;;;;;;;3.20;2.90;;;26.50;61.50;;;;;;5092843;28;20445;-92
2022/07/27 11:55:23;;;;;;;2.60;2.40;;;;;;;;;;5095649;28;20457;-93
2022/07/27 11:57:50;;;;;;;3.87;2.43;;;;;;;;;;5095102;28;20445;-93
2022/07/27 12:00:18;;;;;;;2.50;2.30;;;27.30;60.40;;;;;;5093274;28;20441;-90
2022/07/27 12:02:49;;;;;;;2.73;2.53;;;26.60;60.70;;;;;;5093300;28;20460;-89
2022/07/27 12:05:16;;;;;;;3.23;2.93;;;;;;;;;;5093243;28;20440;-86
2022/07/27 12:07:43;;;;;;;3.07;2.50;;;;;;;;;;5092080;28;21022;-89
2022/07/27 12:10:12;;;;;;;4.60;2.50;;;;;;;;;;5094520;28;20451;-88
2022/07/27 12:12:39;;;;;;;2.80;2.60;;;;;;;;;;5095060;28;20477;-91
2022/07/27 12:15:15;;;;;;;4.13;2.43;;;25.40;62.30;;;;;;5093426;28;20476;-89
2022/07/27 12:17:46;;;;;;;3.00;2.60;;;25.30;63.50;;;;;;5094887;28;20571;-89
2022/07/27 12:20:14;;;;;;;2.53;2.33;;;25.70;62.40;;;;;;5094277;28;20816;-90
2022/07/27 12:22:44;;;;;;;3.40;2.40;;;25.40;63.00;;;;;;5092691;28;20444;-93
2022/07/27 12:25:28;;;;;;;3.80;2.60;;;25.20;63.90;;;;;;5094557;28;20449;-90
2022/07/27 12:27:56;;;;;;;3.00;2.70;;;24.70;65.30;;;;;;5096734;28;20484;-91
2022/07/27 12:30:30;;;;;;;4.80;2.33;;;24.60;64.80;;;;;;5094557;28;20463;-90
2022/07/27 12:32:59;;;;;;;2.80;2.47;;;24.60;63.50;;;;;;5097131;28;20505;-91
2022/07/27 12:35:28;;;;;;;3.97;2.57;;;25.10;63.10;;;;;;5098363;28;20843;-92
2022/07/27 12:38:01;;;;;;;3.20;2.03;;;25.20;60.20;;;;;;5094423;28;20452;-93
2022/07/27 12:40:29;;;;;;;2.30;2.10;;;26.40;62.60;;;;;;5098008;28;20775;-93
2022/07/27 12:42:58;;;;;;;3.23;2.13;;;27.40;59.40;;;;;;5097450;28;20455;-89
2022/07/27 12:45:30;;;;;;;4.20;2.10;;;27.60;59.40;;;;;;5096909;28;20966;-91
2022/07/27 12:48:06;;;;;;;2.23;2.00;;;;;;;;;;5094070;28;20484;-91
2022/07/27 12:50:33;;;;;;;2.10;2.00;;;;;;;;;;5096865;28;20444;-91
2022/07/27 12:53:00;;;;;;;3.30;2.70;;;;;;;;;;5095848;28;20452;-91
2022/07/27 12:55:28;;;;;;;4.23;2.50;;;;;;;;;;5096578;28;20455;-90
2022/07/27 12:57:55;;;;;;;3.03;2.10;;;;;;;;;;5097164;28;20432;-92
2022/07/27 13:00:23;;;;;;;1.70;1.60;;;;;;;;;;5094471;28;20452;-91
2022/07/27 13:02:50;;;;;;;2.23;2.00;;;;;;;;;;5095217;28;20498;-89
2022/07/27 13:05:19;;;;;;;5.13;2.27;;;;;;;;;;5097364;28;20440;-94
2022/07/27 13:07:46;;;;;;;4.23;2.57;;;;;;;;;;5096168;28;20587;-93
2022/07/27 13:10:17;;;;;;;3.90;2.00;;;26.10;59.40;;;;;;5096793;28;20982;-90
2022/07/27 13:12:44;;;;;;;4.10;2.10;;;;;;;;;;5097573;28;20469;-90
2022/07/27 13:15:12;;;;;;;2.50;2.13;;;;;;;;;;5098224;28;20449;-93
2022/07/27 13:17:40;;;;;;;2.93;2.37;;;;;;;;;;5093065;28;20456;-93
2022/07/27 13:20:08;;;;;;;4.13;2.27;;;25.40;62.20;;;;;;5097304;28;20482;-91
2022/07/27 13:22:38;;;;;;;2.60;2.40;;;25.20;60.40;;;;;;5095559;28;20449;-89
2022/07/27 13:25:07;;;;;;;2.80;2.20;;;25.60;63.50;;;;;;5097025;28;20457;-93
2022/07/27 13:27:35;;;;;;;2.73;2.53;;;;;;;;;;5096689;28;20480;-88
2022/07/27 13:30:02;;;;;;;2.30;1.93;;;;;;;;;;5100481;28;20928;-89
2022/07/27 13:32:29;;;;;;;2.70;2.50;;;;;;;;;;5098081;28;20452;-92
2022/07/27 13:34:56;;;;;;;5.00;2.53;;;;;;;;;;5097940;28;20809;-92
2022/07/27 13:37:23;;;;;;;2.80;2.60;;;;;;;;;;5097658;28;20440;-90
2022/07/27 13:39:52;;;;;;;4.80;2.37;;;25.20;64.80;;;;;;5098716;28;20445;-91
2022/07/27 13:42:19;;;;;;;2.20;2.10;;;;;;;;;;5090719;28;20479;-93
2022/07/27 13:44:47;;;;;;;3.30;2.60;;;;;;;;;;5097308;28;20519;-91
2022/07/27 13:47:14;;;;;;;2.53;2.27;;;;;;;;;;5092696;28;20498;-92
2022/07/27 13:49:41;;;;;;;3.17;2.47;;;;;;;;;;5096520;28;20432;-90
2022/07/27 13:52:11;;;;;;;5.73;2.20;;;;;;;;;;5094058;28;20464;-88
2022/07/27 13:54:38;;;;;;;2.37;2.17;;;25.10;62.50;;;;;;5095903;28;20456;-94
2022/07/27 13:57:06;;;;;;;2.07;1.80;;;24.70;68.30;;;;;;5095651;28;20467;-90
2022/07/27 13:59:33;;;;;;;2.50;2.30;;;;;;;;;;5094055;28;20474;-91
2022/07/27 14:02:01;;;;;;;3.50;2.77;;;;;;;;;;5096061;28;20464;-91
2022/07/27 14:04:28;;;;;;;2.50;2.30;;;;;;;;;;5114683;28;20445;-89
2022/07/27 14:06:55;;;;;;;2.20;2.00;;;;;;;;;;5104244;28;20464;-86
2022/07/27 14:10:30;;;;;;;2.60;2.40;;;;;;;;;;5100328;28;20490;-86
2022/07/27 14:12:10;;;;;;;2.87;2.60;;;26.60;63.30;;;;;;5115462;28;20798;-84
2022/07/27 14:14:37;;;;;;;2.27;2.17;;;;;;;;;;5096805;28;20451;-85
2022/07/27 14:17:05;;;;;;;2.20;2.10;;;;;;;;;;5089858;28;20456;-86
2022/07/27 14:19:32;;;;;;;4.33;2.20;;;;;;;;;;5094458;28;20457;-85
2022/07/27 14:21:59;;;;;;;2.30;2.10;;;;;;;;;;5094111;28;20459;-85
2022/07/27 14:24:26;;;;;;;2.27;2.03;;;;;;;;;;5094256;28;20448;-85